createdAt,value
2019-05-25T00:01:14.630Z,14.60
2019-05-25T00:03:44.404Z,14.60
2019-05-25T00:06:14.135Z,14.60
2019-05-25T00:08:43.928Z,14.60
2019-05-25T00:11:13.706Z,14.50
2019-05-25T00:13:43.457Z,14.50
2019-05-25T00:16:13.184Z,14.40
2019-05-25T00:18:42.964Z,14.40
2019-05-25T00:21:14.243Z,14.40
2019-05-25T00:23:44.302Z,14.30
2019-05-25T00:26:14.037Z,14.30
2019-05-25T00:28:43.774Z,14.20
2019-05-25T00:31:13.506Z,14.10
2019-05-25T00:33:43.205Z,14.00
2019-05-25T00:36:12.999Z,13.90
2019-05-25T00:38:42.770Z,13.80
2019-05-25T00:41:12.472Z,13.70
2019-05-25T00:43:42.224Z,13.60
2019-05-25T00:46:11.942Z,13.50
2019-05-25T00:48:41.711Z,13.40
2019-05-25T00:51:11.444Z,13.40
2019-05-25T00:53:41.212Z,13.30
2019-05-25T00:56:10.964Z,13.20
2019-05-25T00:58:40.708Z,13.10
2019-05-25T01:01:10.466Z,13.10
2019-05-25T01:03:40.183Z,13.00
2019-05-25T01:06:09.909Z,13.00
2019-05-25T01:08:39.647Z,13.00
2019-05-25T01:11:09.436Z,13.00
2019-05-25T01:13:39.137Z,12.90
2019-05-25T01:16:09.463Z,12.90
2019-05-25T01:18:39.351Z,12.90
2019-05-25T01:21:09.100Z,12.80
2019-05-25T01:23:38.886Z,12.80
2019-05-25T01:26:08.606Z,12.80
2019-05-25T01:28:38.317Z,12.70
2019-05-25T01:31:08.319Z,12.60
2019-05-25T01:33:38.025Z,12.50
2019-05-25T01:36:07.712Z,12.40
2019-05-25T01:38:37.914Z,12.30
2019-05-25T01:41:07.613Z,12.30
2019-05-25T01:43:37.341Z,12.20
2019-05-25T01:46:07.078Z,12.10
2019-05-25T01:48:36.814Z,12.10
2019-05-25T01:51:06.572Z,12.00
2019-05-25T01:53:36.328Z,11.90
2019-05-25T01:56:06.094Z,11.80
2019-05-25T01:58:36.509Z,11.70
2019-05-25T02:01:06.561Z,11.60
2019-05-25T02:03:36.268Z,11.60
2019-05-25T02:06:06.060Z,11.60
2019-05-25T02:08:35.864Z,11.50
2019-05-25T02:11:05.589Z,11.50
2019-05-25T02:13:35.334Z,11.40
2019-05-25T02:16:05.170Z,11.40
2019-05-25T02:18:34.860Z,11.40
2019-05-25T02:21:04.592Z,11.40
2019-05-25T02:23:34.307Z,11.40
2019-05-25T02:26:04.082Z,11.50
2019-05-25T02:28:33.764Z,11.50
2019-05-25T02:31:03.495Z,11.50
2019-05-25T02:33:33.290Z,11.50
2019-05-25T02:36:03.381Z,11.40
2019-05-25T02:38:33.192Z,11.40
2019-05-25T02:41:02.880Z,11.40
2019-05-25T02:43:32.659Z,11.40
2019-05-25T02:46:02.418Z,11.40
2019-05-25T02:48:32.163Z,11.40
2019-05-25T02:51:01.881Z,11.40
2019-05-25T02:53:31.645Z,11.50
2019-05-25T02:56:01.362Z,11.60
2019-05-25T02:58:31.113Z,11.60
2019-05-25T03:01:00.974Z,11.60
2019-05-25T03:03:31.090Z,11.70
2019-05-25T03:06:02.433Z,11.70
2019-05-25T03:08:32.293Z,11.80
2019-05-25T03:11:02.223Z,11.80
2019-05-25T03:13:33.696Z,11.90
2019-05-25T03:16:03.433Z,11.90
2019-05-25T03:18:33.156Z,12.00
2019-05-25T03:21:02.878Z,12.10
2019-05-25T03:23:32.722Z,12.10
2019-05-25T03:26:02.470Z,12.20
2019-05-25T03:28:32.211Z,12.20
2019-05-25T03:31:02.002Z,12.30
2019-05-25T03:33:31.735Z,12.30
2019-05-25T03:36:01.498Z,12.40
2019-05-25T03:38:31.291Z,12.50
2019-05-25T03:41:01.106Z,12.70
2019-05-25T03:43:30.802Z,12.80
2019-05-25T03:46:00.539Z,12.90
2019-05-25T03:48:30.907Z,13.00
2019-05-25T03:51:00.623Z,13.10
2019-05-25T03:53:30.744Z,13.20
2019-05-25T03:56:05.771Z,13.30
2019-05-25T03:58:31.864Z,13.30
2019-05-25T04:01:01.689Z,13.40
2019-05-25T04:03:31.441Z,13.50
2019-05-25T04:06:01.232Z,13.70
2019-05-25T04:08:30.972Z,13.80
2019-05-25T04:11:00.725Z,14.00
2019-05-25T04:13:30.458Z,14.20
2019-05-25T04:16:01.782Z,14.50
2019-05-25T04:18:31.986Z,14.90
2019-05-25T04:21:01.771Z,15.40
2019-05-25T04:23:31.518Z,15.90
2019-05-25T04:26:01.256Z,16.60
2019-05-25T04:28:30.970Z,17.90
2019-05-25T04:31:00.660Z,19.40
2019-05-25T04:33:30.404Z,20.90
2019-05-25T04:36:00.105Z,21.90
2019-05-25T04:38:29.863Z,22.10
2019-05-25T04:40:59.586Z,22.00
2019-05-25T04:43:29.294Z,21.50
2019-05-25T04:45:59.079Z,20.50
2019-05-25T04:48:28.855Z,19.60
2019-05-25T04:50:58.549Z,18.80
2019-05-25T04:53:28.334Z,18.10
2019-05-25T04:55:58.053Z,17.60
2019-05-25T04:58:30.699Z,17.50
2019-05-25T05:01:00.482Z,17.80
2019-05-25T05:03:30.221Z,17.90
2019-05-25T05:05:59.933Z,17.70
2019-05-25T05:08:35.464Z,17.40
2019-05-25T05:11:03.388Z,17.20
2019-05-25T05:13:33.122Z,17.10
2019-05-25T05:16:02.912Z,17.00
2019-05-25T05:18:32.639Z,16.90
2019-05-25T05:21:02.524Z,16.90
2019-05-25T05:23:34.610Z,16.80
2019-05-25T05:26:04.537Z,16.80
2019-05-25T05:28:34.271Z,16.80
2019-05-25T05:31:04.032Z,16.80
2019-05-25T05:33:33.785Z,16.70
2019-05-25T05:36:04.017Z,16.70
2019-05-25T05:38:35.181Z,16.70
2019-05-25T05:41:05.529Z,16.80
2019-05-25T05:43:38.507Z,16.80
2019-05-25T05:46:10.277Z,16.80
2019-05-25T05:48:40.753Z,16.90
2019-05-25T05:51:13.472Z,16.90
2019-05-25T05:53:46.946Z,17.00
2019-05-25T05:56:17.163Z,17.10
2019-05-25T05:58:47.004Z,17.10
2019-05-25T06:01:16.695Z,17.30
2019-05-25T06:03:46.483Z,17.40
2019-05-25T06:06:16.205Z,17.40
2019-05-25T06:08:46.156Z,17.50
2019-05-25T06:11:15.836Z,17.40
2019-05-25T06:13:45.633Z,17.40
2019-05-25T06:16:15.373Z,17.50
2019-05-25T06:18:45.100Z,17.50
2019-05-25T06:21:14.850Z,17.60
2019-05-25T06:23:44.806Z,17.70
2019-05-25T06:26:17.831Z,17.70
2019-05-25T06:28:47.599Z,17.70
2019-05-25T06:31:17.329Z,17.80
2019-05-25T06:33:48.255Z,17.80
2019-05-25T06:36:17.966Z,17.90
2019-05-25T06:38:47.705Z,17.90
2019-05-25T06:41:17.444Z,18.00
2019-05-25T06:43:47.196Z,18.00
2019-05-25T06:46:16.913Z,18.10
2019-05-25T06:48:46.629Z,18.10
2019-05-25T06:51:16.386Z,18.20
2019-05-25T06:53:46.115Z,18.20
2019-05-25T06:56:15.809Z,18.20
2019-05-25T06:58:45.562Z,18.30
2019-05-25T07:01:15.953Z,18.40
2019-05-25T07:03:45.649Z,18.40
2019-05-25T07:06:15.421Z,18.50
2019-05-25T07:08:45.101Z,18.50
2019-05-25T07:11:14.855Z,18.60
2019-05-25T07:13:44.562Z,18.70
2019-05-25T07:16:14.252Z,18.80
2019-05-25T07:18:43.963Z,18.80
2019-05-25T07:21:13.765Z,18.80
2019-05-25T07:23:43.534Z,18.90
2019-05-25T07:26:13.262Z,19.00
2019-05-25T07:28:45.280Z,19.00
2019-05-25T07:31:15.031Z,19.10
2019-05-25T07:33:44.788Z,19.10
2019-05-25T07:36:14.560Z,19.10
2019-05-25T07:38:44.257Z,19.20
2019-05-25T07:41:13.997Z,19.20
2019-05-25T07:43:43.745Z,19.30
2019-05-25T07:46:16.969Z,19.30
2019-05-25T07:48:45.988Z,19.40
2019-05-25T07:51:15.710Z,19.50
2019-05-25T07:53:45.486Z,19.60
2019-05-25T07:56:15.205Z,19.70
2019-05-25T07:58:44.941Z,19.70
2019-05-25T08:01:14.632Z,19.80
2019-05-25T08:03:44.466Z,19.90
2019-05-25T08:06:14.792Z,20.00
2019-05-25T08:08:44.542Z,20.10
2019-05-25T08:11:14.318Z,20.10
2019-05-25T08:13:44.029Z,20.10
2019-05-25T08:16:13.723Z,20.10
2019-05-25T08:18:43.468Z,20.20
2019-05-25T08:21:13.189Z,20.20
2019-05-25T08:23:42.949Z,20.30
2019-05-25T08:26:12.658Z,20.30
2019-05-25T08:28:42.537Z,20.40
2019-05-25T08:31:12.315Z,20.50
2019-05-25T08:33:42.003Z,20.60
2019-05-25T08:36:11.745Z,20.70
2019-05-25T08:38:41.527Z,20.80
2019-05-25T08:41:11.252Z,20.80
2019-05-25T08:43:40.999Z,20.90
2019-05-25T08:46:10.716Z,21.00
2019-05-25T08:48:40.468Z,21.10
2019-05-25T08:51:10.225Z,21.20
2019-05-25T08:53:42.143Z,21.30
2019-05-25T08:56:11.383Z,21.30
2019-05-25T08:58:48.517Z,21.40
2019-05-25T09:01:12.520Z,21.60
2019-05-25T09:03:42.266Z,21.70
2019-05-25T09:06:11.970Z,21.80
2019-05-25T09:08:42.191Z,21.90
2019-05-25T09:11:11.977Z,21.90
2019-05-25T09:13:41.689Z,22.00
2019-05-25T09:16:11.445Z,22.20
2019-05-25T09:18:41.218Z,22.20
2019-05-25T09:21:11.016Z,22.30
2019-05-25T09:23:40.839Z,22.40
2019-05-25T09:26:13.358Z,22.40
2019-05-25T09:28:41.980Z,22.50
2019-05-25T09:31:11.678Z,22.60
2019-05-25T09:33:41.415Z,22.60
2019-05-25T09:36:11.157Z,22.60
2019-05-25T09:38:43.244Z,22.70
2019-05-25T09:41:12.197Z,22.70
2019-05-25T09:43:41.985Z,22.80
2019-05-25T09:46:11.702Z,23.00
2019-05-25T09:48:41.418Z,23.20
2019-05-25T09:51:15.251Z,23.40
2019-05-25T09:53:42.527Z,23.50
2019-05-25T09:56:12.317Z,23.50
2019-05-25T09:58:42.021Z,23.50
2019-05-25T10:01:11.845Z,23.60
2019-05-25T10:03:41.720Z,23.50
2019-05-25T10:06:13.350Z,23.60
2019-05-25T10:08:42.913Z,23.70
2019-05-25T10:11:12.668Z,23.80
2019-05-25T10:13:42.404Z,24.00
2019-05-25T10:16:12.212Z,24.00
2019-05-25T10:18:41.973Z,24.00
2019-05-25T10:21:14.434Z,24.10
2019-05-25T10:23:43.048Z,24.30
2019-05-25T10:26:12.779Z,24.30
2019-05-25T10:28:42.473Z,24.30
2019-05-25T10:31:12.181Z,24.30
2019-05-25T10:33:41.967Z,24.40
2019-05-25T10:36:11.716Z,24.30
2019-05-25T10:38:41.439Z,24.40
2019-05-25T10:41:11.172Z,24.50
2019-05-25T10:43:40.890Z,24.50
2019-05-25T10:46:10.560Z,24.50
2019-05-25T10:48:40.323Z,24.60
2019-05-25T10:51:10.094Z,24.60
2019-05-25T10:53:39.849Z,24.70
2019-05-25T10:56:09.555Z,24.80
2019-05-25T10:58:39.317Z,25.00
2019-05-25T11:01:09.073Z,25.10
2019-05-25T11:03:38.797Z,25.20
2019-05-25T11:06:08.522Z,25.30
2019-05-25T11:08:38.268Z,25.30
2019-05-25T11:11:07.973Z,25.30
2019-05-25T11:13:37.757Z,25.60
2019-05-25T11:16:07.625Z,25.60
2019-05-25T11:18:37.533Z,25.60
2019-05-25T11:21:07.557Z,25.50
2019-05-25T11:23:37.436Z,25.70
2019-05-25T11:26:07.400Z,25.80
2019-05-25T11:28:37.335Z,26.10
2019-05-25T11:31:07.228Z,26.30
2019-05-25T11:33:38.258Z,26.40
2019-05-25T11:36:08.571Z,26.40
2019-05-25T11:38:38.455Z,26.50
2019-05-25T11:41:08.313Z,26.60
2019-05-25T11:43:38.363Z,26.60
2019-05-25T11:46:08.247Z,26.60
2019-05-25T11:48:38.179Z,26.50
2019-05-25T11:51:09.828Z,26.40
2019-05-25T11:53:40.466Z,26.30
2019-05-25T11:56:10.518Z,26.30
2019-05-25T11:58:47.555Z,26.40
2019-05-25T12:01:12.271Z,26.30
2019-05-25T12:03:42.190Z,26.30
2019-05-25T12:06:12.292Z,26.40
2019-05-25T12:08:42.167Z,26.40
2019-05-25T12:11:12.083Z,26.40
2019-05-25T12:13:41.960Z,26.40
2019-05-25T12:16:12.567Z,26.40
2019-05-25T12:18:42.419Z,26.40
2019-05-25T12:21:12.329Z,26.60
2019-05-25T12:23:42.351Z,26.70
2019-05-25T12:26:12.502Z,26.80
2019-05-25T12:28:43.442Z,26.70
2019-05-25T12:31:13.408Z,26.60
2019-05-25T12:33:43.235Z,26.50
2019-05-25T12:36:13.281Z,26.30
2019-05-25T12:38:45.728Z,26.10
2019-05-25T12:41:15.671Z,25.80
2019-05-25T12:43:45.565Z,25.60
2019-05-25T12:46:15.489Z,25.40
2019-05-25T12:48:46.172Z,25.40
2019-05-25T12:51:17.793Z,25.50
2019-05-25T12:53:47.654Z,25.50
2019-05-25T12:56:17.573Z,25.40
2019-05-25T12:58:50.023Z,25.30
2019-05-25T13:01:19.323Z,25.00
2019-05-25T13:03:49.182Z,25.10
2019-05-25T13:06:19.043Z,25.10
2019-05-25T13:08:48.941Z,25.00
2019-05-25T13:11:18.823Z,24.70
2019-05-25T13:13:48.731Z,24.40
2019-05-25T13:16:18.608Z,24.10
2019-05-25T13:18:48.510Z,23.90
2019-05-25T13:21:18.405Z,23.80
2019-05-25T13:23:48.253Z,23.90
2019-05-25T13:26:18.117Z,23.90
2019-05-25T13:28:48.003Z,23.90
2019-05-25T13:31:17.883Z,24.00
2019-05-25T13:33:47.757Z,24.30
2019-05-25T13:36:17.841Z,24.60
2019-05-25T13:38:47.786Z,24.80
2019-05-25T13:41:18.451Z,24.80
2019-05-25T13:43:50.068Z,24.90
2019-05-25T13:46:19.989Z,25.00
2019-05-25T13:48:49.908Z,25.10
2019-05-25T13:51:19.821Z,25.30
2019-05-25T13:53:49.731Z,25.50
2019-05-25T13:56:19.926Z,25.80
2019-05-25T13:58:49.817Z,26.10
2019-05-25T14:01:28.341Z,26.30
2019-05-25T14:03:51.337Z,26.30
2019-05-25T14:06:24.141Z,26.10
2019-05-25T14:08:58.705Z,25.80
2019-05-25T14:11:28.643Z,25.40
2019-05-25T14:13:58.606Z,25.00
2019-05-25T14:16:28.459Z,24.90
2019-05-25T14:18:58.303Z,24.70
2019-05-25T14:21:28.187Z,24.80
2019-05-25T14:23:58.063Z,24.90
2019-05-25T14:26:27.915Z,24.80
2019-05-25T14:28:58.472Z,24.60
2019-05-25T14:31:44.108Z,24.30
2019-05-25T14:33:59.823Z,24.00
2019-05-25T14:36:29.839Z,23.90
2019-05-25T14:38:59.741Z,24.00
2019-05-25T14:41:29.585Z,24.00
2019-05-25T14:43:59.474Z,24.20
2019-05-25T14:46:29.373Z,24.30
2019-05-25T14:48:59.266Z,24.30
2019-05-25T14:51:29.178Z,24.30
2019-05-25T14:53:59.100Z,24.50
2019-05-25T14:56:28.967Z,24.50
2019-05-25T14:58:58.866Z,24.60
2019-05-25T15:01:28.718Z,24.50
2019-05-25T15:03:58.713Z,24.70
2019-05-25T15:06:28.707Z,24.80
2019-05-25T15:08:58.564Z,25.00
2019-05-25T15:11:28.461Z,25.30
2019-05-25T15:13:58.318Z,25.30
2019-05-25T15:16:28.246Z,25.10
2019-05-25T15:18:58.092Z,24.90
2019-05-25T15:21:28.032Z,24.60
2019-05-25T15:23:58.090Z,24.50
2019-05-25T15:26:28.171Z,24.70
2019-05-25T15:28:58.026Z,25.00
2019-05-25T15:31:28.011Z,25.30
2019-05-25T15:33:57.963Z,25.30
2019-05-25T15:36:27.890Z,25.50
2019-05-25T15:38:58.789Z,25.40
2019-05-25T15:41:28.872Z,25.30
2019-05-25T15:43:58.711Z,25.10
2019-05-25T15:46:28.615Z,24.90
2019-05-25T15:48:58.461Z,24.60
2019-05-25T15:51:28.353Z,24.20
2019-05-25T15:53:58.246Z,23.80
2019-05-25T15:56:28.095Z,23.40
2019-05-25T15:58:58.152Z,23.10
2019-05-25T16:01:28.680Z,22.80
2019-05-25T16:03:59.153Z,22.50
2019-05-25T16:06:29.137Z,22.30
2019-05-25T16:08:59.040Z,22.10
2019-05-25T16:11:31.974Z,21.90
2019-05-25T16:14:10.091Z,21.80
2019-05-25T16:16:39.972Z,21.60
2019-05-25T16:19:09.926Z,21.50
2019-05-25T16:21:40.034Z,21.40
2019-05-25T16:24:09.920Z,21.30
2019-05-25T16:26:46.140Z,21.10
2019-05-25T16:29:11.330Z,21.10
2019-05-25T16:31:41.268Z,21.00
2019-05-25T16:34:12.611Z,20.90
2019-05-25T16:36:42.600Z,20.80
2019-05-25T16:39:12.483Z,20.70
2019-05-25T16:41:42.402Z,20.70
2019-05-25T16:44:12.312Z,20.60
2019-05-25T16:46:42.890Z,20.60
2019-05-25T16:49:13.049Z,20.50
2019-05-25T16:51:42.956Z,20.40
2019-05-25T16:54:12.904Z,20.40
2019-05-25T16:56:42.872Z,20.30
2019-05-25T16:59:12.724Z,20.30
2019-05-25T17:01:48.320Z,20.30
2019-05-25T17:04:14.250Z,20.20
2019-05-25T17:06:44.194Z,20.10
2019-05-25T17:09:14.253Z,20.00
2019-05-25T17:11:44.148Z,19.90
2019-05-25T17:14:13.977Z,19.90
2019-05-25T17:16:43.878Z,19.90
2019-05-25T17:19:13.770Z,19.90
2019-05-25T17:21:43.671Z,19.70
2019-05-25T17:24:13.596Z,19.60
2019-05-25T17:26:43.544Z,19.40
2019-05-25T17:29:13.444Z,19.40
2019-05-25T17:31:43.362Z,19.30
2019-05-25T17:34:13.311Z,19.30
2019-05-25T17:36:45.243Z,19.20
2019-05-25T17:39:15.139Z,19.10
2019-05-25T17:41:45.130Z,19.00
2019-05-25T17:44:15.005Z,18.90
2019-05-25T17:46:44.877Z,18.80
2019-05-25T17:49:14.776Z,18.70
2019-05-25T17:51:46.706Z,18.70
2019-05-25T17:54:16.584Z,18.60
2019-05-25T17:56:46.460Z,18.50
2019-05-25T17:59:16.403Z,18.40
2019-05-25T18:01:46.333Z,18.40
2019-05-25T18:04:16.235Z,18.30
2019-05-25T18:06:46.284Z,18.30
2019-05-25T18:09:16.163Z,18.10
2019-05-25T18:11:46.125Z,18.10
2019-05-25T18:14:16.115Z,18.00
2019-05-25T18:16:46.113Z,18.00
2019-05-25T18:19:17.096Z,17.90
2019-05-25T18:21:47.200Z,17.80
2019-05-25T18:24:17.279Z,17.60
2019-05-25T18:26:47.321Z,17.50
2019-05-25T18:29:17.221Z,17.40
2019-05-25T18:31:47.104Z,17.40
2019-05-25T18:34:22.102Z,17.30
2019-05-25T18:36:48.607Z,17.30
2019-05-25T18:39:18.488Z,17.20
2019-05-25T18:41:48.335Z,17.00
2019-05-25T18:44:18.244Z,16.90
2019-05-25T18:46:48.227Z,16.90
2019-05-25T18:49:18.233Z,16.80
2019-05-25T18:51:48.141Z,16.70
2019-05-25T18:54:17.986Z,16.70
2019-05-25T18:56:47.963Z,16.60
2019-05-25T18:59:17.775Z,16.60
2019-05-25T19:01:47.630Z,16.50
2019-05-25T19:04:20.725Z,16.50
2019-05-25T19:06:50.785Z,16.40
2019-05-25T19:09:20.823Z,16.20
2019-05-25T19:11:53.115Z,16.20
2019-05-25T19:14:23.015Z,16.20
2019-05-25T19:16:52.831Z,16.20
2019-05-25T19:19:22.781Z,16.10
2019-05-25T19:21:52.866Z,16.10
2019-05-25T19:24:22.761Z,16.00
2019-05-25T19:26:52.699Z,15.90
2019-05-25T19:29:22.611Z,15.90
2019-05-25T19:31:52.498Z,15.90
2019-05-25T19:34:23.017Z,15.70
2019-05-25T19:36:52.879Z,15.60
2019-05-25T19:39:23.143Z,15.60
2019-05-25T19:41:53.060Z,15.50
2019-05-25T19:44:23.098Z,15.40
2019-05-25T19:46:52.981Z,15.40
2019-05-25T19:49:22.880Z,15.30
2019-05-25T19:51:52.760Z,15.20
2019-05-25T19:54:22.820Z,15.10
2019-05-25T19:56:52.823Z,15.10
2019-05-25T19:59:22.749Z,15.00
2019-05-25T20:01:52.680Z,14.90
2019-05-25T20:04:22.660Z,14.80
2019-05-25T20:06:52.632Z,14.80
2019-05-25T20:09:22.510Z,14.70
2019-05-25T20:11:52.467Z,14.60
2019-05-25T20:14:22.356Z,14.60
2019-05-25T20:16:52.258Z,14.50
2019-05-25T20:19:22.192Z,14.40
2019-05-25T20:21:52.159Z,14.30
2019-05-25T20:24:22.128Z,14.20
2019-05-25T20:26:52.153Z,14.10
2019-05-25T20:29:22.006Z,14.00
2019-05-25T20:31:51.950Z,14.00
2019-05-25T20:34:21.870Z,13.90
2019-05-25T20:36:51.768Z,13.90
2019-05-25T20:39:21.701Z,13.90
2019-05-25T20:41:51.593Z,13.80
2019-05-25T20:44:21.560Z,13.80
2019-05-25T20:46:51.457Z,13.70
2019-05-25T20:49:21.777Z,13.70
2019-05-25T20:51:51.775Z,13.70
2019-05-25T20:54:21.777Z,13.70
2019-05-25T20:56:51.669Z,13.60
2019-05-25T20:59:21.610Z,13.50
2019-05-25T21:01:51.548Z,13.40
2019-05-25T21:04:21.460Z,13.30
2019-05-25T21:06:51.379Z,13.20
2019-05-25T21:09:21.297Z,13.10
2019-05-25T21:11:55.427Z,13.10
2019-05-25T21:14:22.720Z,13.00
2019-05-25T21:16:52.622Z,12.90
2019-05-25T21:19:22.533Z,12.80
2019-05-25T21:21:52.420Z,12.80
2019-05-25T21:24:22.343Z,12.70
2019-05-25T21:26:52.255Z,12.60
2019-05-25T21:29:22.190Z,12.40
2019-05-25T21:31:52.122Z,12.40
2019-05-25T21:34:22.199Z,12.30
2019-05-25T21:36:52.680Z,12.30
2019-05-25T21:39:22.984Z,12.30
2019-05-25T21:41:52.876Z,12.20
2019-05-25T21:44:22.949Z,12.20
2019-05-25T21:46:52.915Z,12.10
2019-05-25T21:49:22.880Z,12.00
2019-05-25T21:51:55.763Z,12.00
2019-05-25T21:54:25.681Z,11.90
2019-05-25T21:56:56.818Z,11.80
2019-05-25T21:59:26.721Z,11.80
2019-05-25T22:01:56.652Z,11.70
2019-05-25T22:04:26.558Z,11.60
2019-05-25T22:06:56.958Z,11.50
2019-05-25T22:09:26.978Z,11.50
2019-05-25T22:11:56.870Z,11.40
2019-05-25T22:14:26.765Z,11.40
2019-05-25T22:16:56.678Z,11.30
2019-05-25T22:19:26.618Z,11.20
2019-05-25T22:21:58.416Z,11.20
2019-05-25T22:24:28.271Z,11.10
2019-05-25T22:26:58.245Z,11.00
2019-05-25T22:29:28.202Z,11.00
2019-05-25T22:31:58.143Z,10.90
2019-05-25T22:34:28.056Z,10.90
2019-05-25T22:36:58.093Z,10.80
2019-05-25T22:39:27.963Z,10.70
2019-05-25T22:41:57.893Z,10.70
2019-05-25T22:44:28.143Z,10.60
2019-05-25T22:46:58.083Z,10.60
2019-05-25T22:49:27.963Z,10.50
2019-05-25T22:51:57.913Z,10.40
2019-05-25T22:54:27.843Z,10.40
2019-05-25T22:56:57.764Z,10.40
2019-05-25T22:59:27.673Z,10.30
2019-05-25T23:01:57.581Z,10.30
2019-05-25T23:04:27.488Z,10.30
2019-05-25T23:06:58.584Z,10.20
2019-05-25T23:09:28.970Z,10.20
2019-05-25T23:11:58.891Z,10.20
2019-05-25T23:14:28.765Z,10.20
2019-05-25T23:16:58.718Z,10.10
2019-05-25T23:19:28.589Z,10.10
2019-05-25T23:21:58.553Z,10.10
2019-05-25T23:24:28.466Z,10.00
2019-05-25T23:26:58.463Z,10.00
2019-05-25T23:29:28.364Z,10.00
2019-05-25T23:31:58.547Z,10.00
2019-05-25T23:34:28.578Z,9.90
2019-05-25T23:37:13.503Z,9.90
2019-05-25T23:39:29.972Z,9.90
2019-05-25T23:41:59.897Z,9.90
2019-05-25T23:44:29.841Z,9.90
2019-05-25T23:46:59.724Z,9.90
2019-05-25T23:49:29.603Z,9.90
2019-05-25T23:51:59.544Z,9.80
2019-05-25T23:54:29.488Z,9.80
2019-05-25T23:56:59.367Z,9.80
2019-05-25T23:59:29.229Z,9.80
